Time;durP1;ratioP1;P1;durP2;ratioP2;P2;SDS_P1;SDS_P2;PMS_P1;PMS_P2;Temp;Humidity;BMP_temperature;BMP_pressure;BME280_temperature;BME280_humidity;BME280_pressure;Samples;Min_cycle;Max_cycle;Signal;HPM_P1;HPM_P2
2023/04/28 00:01:29;;;;;;;3.63;2.90;;;11.20;90.40;;;;;;5073004;28;20163;-75
2023/04/28 00:03:56;;;;;;;4.43;3.20;;;11.30;90.30;;;;;;5073117;28;20210;-74
2023/04/28 00:06:22;;;;;;;3.07;2.90;;;11.30;90.30;;;;;;5073047;28;20180;-75
2023/04/28 00:08:47;;;;;;;4.97;3.10;;;11.30;90.20;;;;;;5072954;28;20172;-76
2023/04/28 00:11:13;;;;;;;3.63;3.33;;;11.40;90.30;;;;;;5073580;28;20175;-75
2023/04/28 00:13:39;;;;;;;3.20;3.00;;;11.40;90.30;;;;;;5073209;28;20227;-76
2023/04/28 00:16:05;;;;;;;4.27;3.57;;;11.40;90.50;;;;;;5073401;28;20200;-75
2023/04/28 00:18:32;;;;;;;3.60;3.30;;;11.40;90.90;;;;;;5072844;28;20528;-76
2023/04/28 00:20:58;;;;;;;4.13;3.40;;;11.30;90.50;;;;;;5073348;28;20177;-75
2023/04/28 00:23:24;;;;;;;3.10;2.90;;;11.20;91.20;;;;;;5074200;28;20268;-74
2023/04/28 00:25:51;;;;;;;3.77;3.17;;;11.10;91.50;;;;;;5074173;28;20297;-77
2023/04/28 00:28:17;;;;;;;3.43;2.97;;;11.10;90.80;;;;;;5075082;28;20180;-76
2023/04/28 00:30:43;;;;;;;4.07;3.27;;;11.00;91.10;;;;;;5076748;28;20177;-76
2023/04/28 00:33:08;;;;;;;3.40;3.10;;;10.90;90.90;;;;;;5076703;28;20261;-75
2023/04/28 00:35:34;;;;;;;3.50;3.20;;;10.90;91.00;;;;;;5073574;28;20179;-75
2023/04/28 00:38:00;;;;;;;3.00;2.80;;;10.90;91.00;;;;;;5072695;28;20546;-77
2023/04/28 00:40:33;;;;;;;3.50;3.20;;;10.80;90.90;;;;;;5074385;28;20188;-76
2023/04/28 00:42:59;;;;;;;3.40;3.20;;;10.80;91.10;;;;;;5074302;28;20317;-74
2023/04/28 00:45:24;;;;;;;3.33;3.07;;;10.70;91.60;;;;;;5073061;28;20304;-75
2023/04/28 00:47:50;;;;;;;3.77;2.90;;;10.60;92.00;;;;;;5081547;28;20184;-75
2023/04/28 00:50:16;;;;;;;2.90;2.70;;;10.60;91.80;;;;;;5073839;28;20176;-74
2023/04/28 00:52:42;;;;;;;3.50;2.87;;;10.50;92.30;;;;;;5075119;28;20521;-74
2023/04/28 00:55:09;;;;;;;3.60;2.73;;;10.40;92.50;;;;;;5073077;28;20535;-74
2023/04/28 00:57:35;;;;;;;3.10;2.90;;;10.30;92.70;;;;;;5074420;28;20653;-75
2023/04/28 01:00:02;;;;;;;3.47;3.17;;;10.30;92.60;;;;;;5072931;28;20190;-75
2023/04/28 01:02:29;;;;;;;4.27;3.20;;;10.20;93.00;;;;;;5072620;28;20261;-74
2023/04/28 01:04:57;;;;;;;3.87;3.10;;;10.20;93.00;;;;;;5072793;28;20216;-74
2023/04/28 01:07:22;;;;;;;3.50;3.20;;;10.20;93.00;;;;;;5072182;28;20234;-75
2023/04/28 01:09:48;;;;;;;4.70;2.87;;;10.10;93.00;;;;;;5072513;28;20174;-75
2023/04/28 01:12:14;;;;;;;3.30;3.00;;;10.00;93.00;;;;;;5074072;28;20212;-74
2023/04/28 01:14:40;;;;;;;3.00;2.80;;;10.00;93.40;;;;;;5076532;28;20181;-75
2023/04/28 01:17:06;;;;;;;3.10;2.90;;;9.90;94.20;;;;;;5075096;28;20215;-73
2023/04/28 01:19:32;;;;;;;3.20;3.00;;;9.90;94.20;;;;;;5074810;28;20165;-74
2023/04/28 01:21:58;;;;;;;5.10;2.90;;;9.80;94.10;;;;;;5076270;28;20183;-75
2023/04/28 01:24:23;;;;;;;3.87;3.43;;;9.80;94.10;;;;;;5076159;28;20208;-75
2023/04/28 01:26:49;;;;;;;3.33;3.10;;;9.80;94.10;;;;;;5075729;28;20210;-75
2023/04/28 01:29:15;;;;;;;4.77;3.47;;;9.80;94.30;;;;;;5075979;28;20215;-74
2023/04/28 01:31:41;;;;;;;3.50;3.00;;;9.80;94.30;;;;;;5075870;28;20179;-75
2023/04/28 01:34:06;;;;;;;3.77;3.40;;;9.70;94.30;;;;;;5075911;28;20198;-75
2023/04/28 01:36:32;;;;;;;3.60;3.30;;;9.70;94.60;;;;;;5076408;28;20197;-74
2023/04/28 01:38:58;;;;;;;3.47;3.27;;;9.60;94.80;;;;;;5076740;28;20177;-74
2023/04/28 01:41:24;;;;;;;5.13;3.30;;;9.60;94.70;;;;;;5076226;28;20176;-75
2023/04/28 01:43:50;;;;;;;3.93;3.63;;;9.60;94.80;;;;;;5076024;28;20227;-74
2023/04/28 01:46:16;;;;;;;3.27;3.00;;;9.60;94.80;;;;;;5076513;28;20193;-74
2023/04/28 01:48:42;;;;;;;3.10;2.90;;;9.60;94.90;;;;;;5075028;28;20539;-75
2023/04/28 01:51:07;;;;;;;4.13;3.27;;;9.60;95.00;;;;;;5077584;28;20184;-75
2023/04/28 01:53:34;;;;;;;4.23;3.53;;;9.50;95.10;;;;;;5079396;28;20171;-76
2023/04/28 01:56:01;;;;;;;6.70;3.77;;;9.50;95.20;;;;;;5089574;28;20172;-74
2023/04/28 01:58:27;;;;;;;3.67;3.33;;;9.40;95.30;;;;;;5082044;28;20173;-76
2023/04/28 02:00:52;;;;;;;5.00;3.70;;;9.40;95.50;;;;;;5076085;28;20251;-76
2023/04/28 02:03:18;;;;;;;4.07;3.20;;;9.40;95.60;;;;;;5077512;28;20184;-73
2023/04/28 02:05:44;;;;;;;5.07;3.23;;;9.30;95.60;;;;;;5076510;28;20262;-75
2023/04/28 02:08:10;;;;;;;5.17;3.63;;;9.20;95.80;;;;;;5093718;28;20175;-76
2023/04/28 02:10:35;;;;;;;4.67;3.17;;;9.10;95.90;;;;;;5088697;28;20621;-75
2023/04/28 02:13:01;;;;;;;4.30;3.17;;;9.20;96.00;;;;;;5075404;28;20179;-76
2023/04/28 02:15:27;;;;;;;4.33;3.23;;;9.10;96.20;;;;;;5075482;28;20183;-75
2023/04/28 02:17:52;;;;;;;4.63;3.30;;;9.00;96.30;;;;;;5074973;28;20176;-75
2023/04/28 02:20:18;;;;;;;3.60;3.40;;;9.00;96.40;;;;;;5075123;28;20180;-75
2023/04/28 02:22:44;;;;;;;3.10;2.90;;;9.00;96.60;;;;;;5074971;28;20623;-74
2023/04/28 02:25:10;;;;;;;3.93;3.53;;;8.90;96.60;;;;;;5076980;28;20666;-74
2023/04/28 02:27:35;;;;;;;3.67;3.37;;;8.90;96.70;;;;;;5077196;28;20584;-75
2023/04/28 02:30:05;;;;;;;3.53;3.33;;;8.80;96.70;;;;;;5074678;28;20173;-73
2023/04/28 02:32:31;;;;;;;3.57;3.37;;;8.80;96.80;;;;;;5075066;28;20255;-76
2023/04/28 02:34:57;;;;;;;3.70;3.33;;;8.80;97.00;;;;;;5073532;28;20178;-74
2023/04/28 02:37:23;;;;;;;4.10;3.80;;;8.80;96.70;;;;;;5074514;28;20523;-74
2023/04/28 02:39:48;;;;;;;3.63;3.30;;;8.80;96.70;;;;;;5075276;28;20197;-74
2023/04/28 02:42:14;;;;;;;3.03;2.90;;;8.80;96.50;;;;;;5075688;28;20210;-75
2023/04/28 02:44:40;;;;;;;4.67;3.17;;;8.70;96.60;;;;;;5076322;28;20234;-75
2023/04/28 02:47:06;;;;;;;4.70;3.30;;;8.70;96.60;;;;;;5075520;28;20175;-75
2023/04/28 02:49:32;;;;;;;4.77;3.50;;;8.60;96.80;;;;;;5076421;28;20612;-74
2023/04/28 02:51:57;;;;;;;3.13;2.83;;;8.60;96.80;;;;;;5076600;28;20243;-74
2023/04/28 02:54:26;;;;;;;4.03;3.73;;;8.60;96.90;;;;;;5075859;28;20175;-75
2023/04/28 02:56:56;;;;;;;3.80;3.50;;;8.60;96.90;;;;;;5075819;28;20175;-75
2023/04/28 02:59:23;;;;;;;5.33;3.43;;;8.70;96.90;;;;;;5074446;28;20174;-74
2023/04/28 03:01:50;;;;;;;4.03;3.33;;;8.60;96.90;;;;;;5075822;28;20183;-74
2023/04/28 03:04:16;;;;;;;4.33;3.30;;;8.60;96.90;;;;;;5075516;28;20199;-74
2023/04/28 03:06:42;;;;;;;3.70;3.20;;;8.60;97.00;;;;;;5075463;28;20181;-74
2023/04/28 03:09:09;;;;;;;3.90;3.60;;;8.60;97.10;;;;;;5075033;28;20167;-75
2023/04/28 03:11:35;;;;;;;3.80;3.50;;;8.60;97.20;;;;;;5075696;28;20179;-75
2023/04/28 03:14:01;;;;;;;3.60;3.30;;;8.60;97.20;;;;;;5076151;28;20178;-74
2023/04/28 03:16:27;;;;;;;3.67;3.13;;;8.60;97.10;;;;;;5076585;28;20172;-75
2023/04/28 03:18:53;;;;;;;7.93;3.50;;;8.60;97.20;;;;;;5074664;28;20273;-73
2023/04/28 03:21:18;;;;;;;5.07;3.93;;;8.50;97.30;;;;;;5077177;28;20172;-73
2023/04/28 03:23:44;;;;;;;4.13;3.73;;;8.50;97.50;;;;;;5077608;28;20650;-73
2023/04/28 03:26:10;;;;;;;4.03;3.73;;;8.40;97.50;;;;;;5075071;28;20262;-74
2023/04/28 03:28:36;;;;;;;3.67;3.37;;;8.40;97.60;;;;;;5074039;28;20520;-74
2023/04/28 03:31:02;;;;;;;3.90;3.60;;;8.30;97.70;;;;;;5073315;28;20175;-75
2023/04/28 03:33:28;;;;;;;3.87;3.50;;;8.20;97.70;;;;;;5074453;28;20191;-74
2023/04/28 03:35:53;;;;;;;4.17;3.67;;;8.20;97.90;;;;;;5075000;28;20664;-74
2023/04/28 03:38:20;;;;;;;3.90;3.37;;;8.20;98.10;;;;;;5074407;28;20171;-75
2023/04/28 03:40:45;;;;;;;5.33;3.27;;;8.10;98.10;;;;;;5074537;28;20186;-74
2023/04/28 03:43:12;;;;;;;3.53;3.20;;;8.20;98.20;;;;;;5074816;28;20219;-74
2023/04/28 03:45:39;;;;;;;3.77;3.47;;;8.00;98.30;;;;;;5074728;28;20210;-75
2023/04/28 03:48:04;;;;;;;3.97;3.40;;;7.90;98.60;;;;;;5076737;28;20264;-75
2023/04/28 03:50:30;;;;;;;3.30;3.10;;;7.90;98.90;;;;;;5075458;28;20736;-75
2023/04/28 03:52:56;;;;;;;5.50;3.30;;;7.90;98.80;;;;;;5074650;28;20178;-74
2023/04/28 03:55:22;;;;;;;3.47;3.27;;;7.90;98.80;;;;;;5073950;28;20206;-74
2023/04/28 03:57:48;;;;;;;3.67;3.47;;;8.00;98.70;;;;;;5073886;28;20198;-75
2023/04/28 04:00:13;;;;;;;3.63;3.40;;;8.10;98.60;;;;;;5078250;28;20179;-76
2023/04/28 04:02:39;;;;;;;3.40;3.20;;;8.10;98.60;;;;;;5074249;28;20178;-75
2023/04/28 04:05:05;;;;;;;3.97;3.30;;;8.10;98.60;;;;;;5073760;28;20299;-75
2023/04/28 04:07:31;;;;;;;3.77;3.43;;;8.20;98.50;;;;;;5073566;28;20170;-74
2023/04/28 04:09:57;;;;;;;3.50;3.17;;;8.20;98.40;;;;;;5073606;28;20175;-75
2023/04/28 04:12:22;;;;;;;3.37;3.03;;;8.30;98.40;;;;;;5073302;28;20179;-75
2023/04/28 04:14:48;;;;;;;4.53;3.30;;;8.40;98.40;;;;;;5074229;28;20648;-76
2023/04/28 04:17:14;;;;;;;3.50;3.20;;;8.40;98.30;;;;;;5073427;28;20631;-74
2023/04/28 04:19:40;;;;;;;4.47;3.67;;;8.40;98.20;;;;;;5073388;28;20257;-74
2023/04/28 04:22:06;;;;;;;4.63;3.60;;;8.50;98.20;;;;;;5073958;28;20249;-76
2023/04/28 04:24:32;;;;;;;3.93;3.57;;;8.60;98.20;;;;;;5076881;28;20193;-75
2023/04/28 04:26:57;;;;;;;3.50;3.27;;;8.50;98.20;;;;;;5074342;28;20171;-74
2023/04/28 04:29:23;;;;;;;5.67;3.67;;;8.60;98.20;;;;;;5075545;28;20178;-74
2023/04/28 04:31:50;;;;;;;5.37;3.77;;;8.60;98.10;;;;;;5074528;28;20231;-75
2023/04/28 04:34:15;;;;;;;7.17;3.97;;;8.60;97.70;;;;;;5073204;28;20600;-73
2023/04/28 04:36:41;;;;;;;4.30;3.03;;;8.60;97.80;;;;;;5074800;28;20192;-75
2023/04/28 04:39:07;;;;;;;4.13;3.20;;;8.70;97.80;;;;;;5073820;28;20179;-74
2023/04/28 04:41:33;;;;;;;3.97;3.53;;;8.70;97.90;;;;;;5074811;28;20221;-74
2023/04/28 04:43:58;;;;;;;5.10;3.77;;;8.80;97.80;;;;;;5074602;28;20223;-75
2023/04/28 04:46:24;;;;;;;4.43;4.13;;;8.80;98.10;;;;;;5076579;28;20172;-75
2023/04/28 04:48:50;;;;;;;8.10;3.77;;;8.90;97.90;;;;;;5081042;28;20623;-74
2023/04/28 04:51:15;;;;;;;3.57;3.30;;;8.90;97.80;;;;;;5076130;28;20178;-74
2023/04/28 04:53:41;;;;;;;4.87;4.30;;;9.00;97.60;;;;;;5074308;28;20172;-74
2023/04/28 04:56:07;;;;;;;4.27;3.87;;;8.90;97.40;;;;;;5074890;28;20539;-75
2023/04/28 04:58:33;;;;;;;3.73;3.40;;;9.00;97.40;;;;;;5074611;28;20166;-74
2023/04/28 05:01:00;;;;;;;4.50;3.97;;;9.10;97.40;;;;;;5074575;28;20182;-76
2023/04/28 05:03:27;;;;;;;3.70;3.40;;;9.10;97.30;;;;;;5074283;28;20187;-75
2023/04/28 05:05:53;;;;;;;4.63;3.60;;;9.00;97.30;;;;;;5073916;28;20203;-74
2023/04/28 05:08:19;;;;;;;4.23;3.83;;;9.10;97.30;;;;;;5072359;28;20186;-74
2023/04/28 05:10:45;;;;;;;4.40;4.00;;;9.10;97.10;;;;;;5074373;28;20206;-74
2023/04/28 05:13:10;;;;;;;4.23;3.80;;;9.20;97.20;;;;;;5072550;28;20176;-75
2023/04/28 05:15:36;;;;;;;5.07;3.90;;;9.20;97.10;;;;;;5073295;28;20179;-75
2023/04/28 05:18:08;;;;;;;3.90;3.60;;;9.20;97.20;;;;;;5074025;28;20257;-74
2023/04/28 05:20:34;;;;;;;4.07;3.50;;;9.10;97.20;;;;;;5072266;28;20266;-74
2023/04/28 05:23:00;;;;;;;5.33;3.60;;;9.20;97.20;;;;;;5075680;28;20587;-75
2023/04/28 05:25:25;;;;;;;3.77;3.47;;;9.30;97.10;;;;;;5075969;28;20211;-76
2023/04/28 05:27:51;;;;;;;3.33;3.13;;;9.40;96.90;;;;;;5072665;28;20180;-75
2023/04/28 05:30:17;;;;;;;7.10;4.43;;;9.50;97.10;;;;;;5072860;28;20643;-74
2023/04/28 05:32:43;;;;;;;3.50;3.20;;;9.60;96.80;;;;;;5074717;28;20683;-74
2023/04/28 05:35:10;;;;;;;5.77;3.73;;;9.70;96.60;;;;;;5073311;28;20589;-75
2023/04/28 05:37:37;;;;;;;4.13;3.43;;;9.70;96.50;;;;;;5072663;28;20175;-75
2023/04/28 05:40:03;;;;;;;7.13;3.70;;;9.80;96.50;;;;;;5071572;28;20199;-74
2023/04/28 05:42:29;;;;;;;9.10;4.07;;;9.80;96.30;;;;;;5072175;28;20219;-74
2023/04/28 05:44:54;;;;;;;6.07;3.67;;;9.80;96.50;;;;;;5072151;28;20729;-74
2023/04/28 05:47:20;;;;;;;5.17;3.70;;;9.90;96.70;;;;;;5072246;28;20189;-74
2023/04/28 05:49:46;;;;;;;5.10;3.63;;;10.10;96.10;;;;;;5071581;28;20187;-75
2023/04/28 05:52:12;;;;;;;3.40;3.10;;;10.20;95.50;;;;;;5073076;28;20577;-74
2023/04/28 05:54:37;;;;;;;3.70;3.40;;;10.20;95.20;;;;;;5071835;28;20180;-75
2023/04/28 05:57:03;;;;;;;3.83;3.63;;;10.20;95.10;;;;;;5071305;28;20183;-77
2023/04/28 05:59:30;;;;;;;4.70;3.93;;;10.10;95.40;;;;;;5076576;28;20187;-75
2023/04/28 06:01:56;;;;;;;3.53;3.23;;;10.00;95.30;;;;;;5077671;28;20172;-74
2023/04/28 06:04:21;;;;;;;3.50;3.30;;;10.10;95.40;;;;;;5075964;28;20211;-74
2023/04/28 06:06:47;;;;;;;5.13;3.67;;;10.20;95.20;;;;;;5077920;28;20231;-75
2023/04/28 06:09:13;;;;;;;4.90;3.50;;;10.30;95.00;;;;;;5083097;28;20633;-75
2023/04/28 06:11:46;;;;;;;4.77;3.63;;;10.40;94.70;;;;;;5085711;28;20264;-74
2023/04/28 06:14:12;;;;;;;4.67;3.37;;;10.60;94.90;;;;;;5085114;28;20161;-75
2023/04/28 06:16:38;;;;;;;6.50;3.50;;;10.70;94.30;;;;;;5080750;28;20788;-74
2023/04/28 06:19:03;;;;;;;3.73;3.47;;;10.70;94.10;;;;;;5076380;28;20219;-74
2023/04/28 06:21:31;;;;;;;7.90;3.87;;;10.80;94.10;;;;;;5076956;28;20649;-75
2023/04/28 06:23:56;;;;;;;4.53;3.77;;;10.90;94.00;;;;;;5074630;28;20197;-74
2023/04/28 06:26:23;;;;;;;5.07;4.37;;;11.00;94.00;;;;;;5076868;28;20177;-73
2023/04/28 06:28:49;;;;;;;6.13;3.87;;;11.20;93.80;;;;;;5077024;28;20230;-76
2023/04/28 06:31:15;;;;;;;4.20;3.77;;;11.30;93.80;;;;;;5076850;28;20688;-74
2023/04/28 06:33:41;;;;;;;6.37;3.93;;;11.50;93.90;;;;;;5074832;28;20178;-74
2023/04/28 06:36:07;;;;;;;4.90;3.70;;;11.50;93.90;;;;;;5076681;28;20542;-74
2023/04/28 06:38:33;;;;;;;5.60;3.33;;;11.50;94.00;;;;;;5076929;28;20286;-75
2023/04/28 06:40:59;;;;;;;4.30;3.60;;;11.60;94.30;;;;;;5077063;28;20596;-75
2023/04/28 06:43:24;;;;;;;5.60;4.07;;;11.70;94.30;;;;;;5075517;28;20307;-74
2023/04/28 06:45:53;;;;;;;4.07;3.53;;;11.80;93.80;;;;;;5076539;28;20556;-74
2023/04/28 06:48:18;;;;;;;7.83;3.40;;;11.90;93.80;;;;;;5076260;28;20180;-75
2023/04/28 06:50:44;;;;;;;5.97;4.00;;;12.00;94.20;;;;;;5074650;28;20570;-74
2023/04/28 06:53:10;;;;;;;9.63;4.10;;;12.10;94.40;;;;;;5075867;28;20241;-74
2023/04/28 06:55:36;;;;;;;4.63;3.63;;;12.20;94.20;;;;;;5077038;28;20270;-73
2023/04/28 06:58:02;;;;;;;4.33;3.93;;;12.40;93.50;;;;;;5075391;28;20253;-73
2023/04/28 07:00:27;;;;;;;5.07;3.50;;;12.50;92.80;;;;;;5076302;28;20224;-74
2023/04/28 07:02:53;;;;;;;4.13;3.80;;;12.60;92.90;;;;;;5076521;28;20186;-74
2023/04/28 07:05:19;;;;;;;4.67;3.47;;;12.70;92.30;;;;;;5075637;28;20745;-76
2023/04/28 07:07:45;;;;;;;4.50;3.97;;;12.80;95.10;;;;;;5075901;28;20194;-76
2023/04/28 07:10:12;;;;;;;4.80;3.40;;;12.70;94.60;;;;;;5075138;28;20210;-75
2023/04/28 07:12:37;;;;;;;3.47;3.27;;;12.70;93.50;;;;;;5076205;28;20664;-74
2023/04/28 07:15:03;;;;;;;4.53;4.03;;;12.80;93.10;;;;;;5075857;28;20171;-75
2023/04/28 07:17:29;;;;;;;3.87;3.57;;;13.00;92.40;;;;;;5073951;28;20258;-73
2023/04/28 07:19:55;;;;;;;6.47;3.77;;;13.00;92.30;;;;;;5074385;28;20210;-75
2023/04/28 07:22:21;;;;;;;3.93;3.63;;;13.00;92.50;;;;;;5075537;28;20162;-74
2023/04/28 07:24:46;;;;;;;3.80;3.50;;;13.00;92.80;;;;;;5074858;28;20205;-74
2023/04/28 07:27:12;;;;;;;6.83;3.57;;;13.10;93.00;;;;;;5075471;28;20270;-73
2023/04/28 07:29:38;;;;;;;3.60;3.30;;;13.10;92.70;;;;;;5084183;28;20185;-75
2023/04/28 07:32:04;;;;;;;3.87;3.43;;;13.30;93.20;;;;;;5075486;28;20206;-76
2023/04/28 07:34:30;;;;;;;3.97;3.67;;;13.30;92.10;;;;;;5076492;28;20171;-75
2023/04/28 07:36:57;;;;;;;3.53;3.30;;;13.30;91.70;;;;;;5081068;28;20229;-75
2023/04/28 07:39:25;;;;;;;4.53;3.70;;;13.40;91.20;;;;;;5084826;28;20171;-74
2023/04/28 07:41:51;;;;;;;3.77;3.50;;;13.50;91.30;;;;;;5076854;28;20186;-77
2023/04/28 07:44:17;;;;;;;4.17;3.77;;;13.50;91.50;;;;;;5074679;28;20234;-75
2023/04/28 07:46:43;;;;;;;5.10;3.77;;;13.60;91.90;;;;;;5074414;28;20254;-75
2023/04/28 07:49:08;;;;;;;3.97;3.67;;;13.60;91.10;;;;;;5074238;28;20224;-74
2023/04/28 07:51:34;;;;;;;4.17;3.70;;;13.50;91.40;;;;;;5076998;28;20171;-74
2023/04/28 07:54:00;;;;;;;4.10;3.70;;;13.50;91.60;;;;;;5073301;28;20183;-75
2023/04/28 07:56:26;;;;;;;4.70;4.10;;;13.60;91.70;;;;;;5073673;28;20179;-76
2023/04/28 07:58:52;;;;;;;3.70;3.50;;;13.60;91.70;;;;;;5074763;28;20203;-77
2023/04/28 08:01:18;;;;;;;4.07;3.67;;;13.60;91.20;;;;;;5074847;28;20202;-74
2023/04/28 08:03:43;;;;;;;4.53;3.43;;;13.50;91.20;;;;;;5074531;28;20267;-74
2023/04/28 08:06:09;;;;;;;4.60;3.40;;;13.40;91.40;;;;;;5072616;28;20214;-74
2023/04/28 08:08:35;;;;;;;3.43;3.20;;;13.50;91.60;;;;;;5072410;28;20186;-73
2023/04/28 08:11:01;;;;;;;4.47;4.03;;;13.40;92.20;;;;;;5074004;28;20179;-74
2023/04/28 08:13:27;;;;;;;8.17;3.90;;;13.30;91.70;;;;;;5074291;28;20178;-75
2023/04/28 08:15:55;;;;;;;3.80;3.50;;;13.40;91.80;;;;;;5074215;28;20168;-75
2023/04/28 08:18:21;;;;;;;4.17;3.77;;;13.50;92.30;;;;;;5074795;28;20179;-74
2023/04/28 08:20:47;;;;;;;4.37;4.07;;;13.50;91.60;;;;;;5075142;28;20236;-76
2023/04/28 08:23:13;;;;;;;4.70;4.30;;;13.50;91.70;;;;;;5073888;28;20258;-74
2023/04/28 08:25:38;;;;;;;3.80;3.50;;;13.40;91.80;;;;;;5074059;28;20207;-74
2023/04/28 08:28:05;;;;;;;4.67;4.20;;;13.50;92.20;;;;;;5074344;28;20682;-74
2023/04/28 08:30:31;;;;;;;4.30;3.90;;;13.40;92.40;;;;;;5077117;28;20263;-75
2023/04/28 08:32:57;;;;;;;5.40;4.80;;;13.40;92.90;;;;;;5072991;28;20623;-74
2023/04/28 08:35:22;;;;;;;4.10;3.70;;;13.40;92.80;;;;;;5073661;28;20187;-75
2023/04/28 08:37:48;;;;;;;5.40;4.07;;;13.30;92.10;;;;;;5073178;28;20206;-74
2023/04/28 08:40:14;;;;;;;8.50;4.33;;;13.30;92.30;;;;;;5074266;28;20534;-74
2023/04/28 08:42:41;;;;;;;4.83;4.40;;;13.30;92.10;;;;;;5074966;28;20679;-74
2023/04/28 08:45:11;;;;;;;5.87;4.77;;;13.30;92.10;;;;;;5071425;28;20207;-74
2023/04/28 08:47:40;;;;;;;4.67;4.27;;;13.20;92.40;;;;;;5074174;28;20179;-75
2023/04/28 08:50:11;;;;;;;6.17;3.83;;;13.10;91.90;;;;;;5082521;28;20179;-73
2023/04/28 08:52:37;;;;;;;4.73;4.00;;;13.10;91.90;;;;;;5074108;28;20242;-74
2023/04/28 08:55:16;;;;;;;6.37;4.17;;;12.90;93.40;;;;;;5073806;28;20197;-75
2023/04/28 08:57:50;;;;;;;4.60;4.13;;;12.90;94.10;;;;;;5075138;28;20159;-73
2023/04/28 09:00:16;;;;;;;4.33;4.03;;;12.80;93.20;;;;;;5073532;28;20221;-74
2023/04/28 09:02:42;;;;;;;6.83;4.70;;;12.70;93.80;;;;;;5080961;28;20268;-75
2023/04/28 09:05:10;;;;;;;4.50;4.17;;;12.80;93.00;;;;;;5083935;28;20654;-74
2023/04/28 09:07:36;;;;;;;5.53;4.50;;;13.10;94.50;;;;;;5084871;28;20556;-74
2023/04/28 09:10:19;;;;;;;6.80;4.10;;;12.80;94.70;;;;;;5076176;28;20542;-75
2023/04/28 09:12:46;;;;;;;5.10;4.53;;;13.00;94.30;;;;;;5074161;28;20183;-73
2023/04/28 09:15:29;;;;;;;4.80;4.50;;;13.10;94.60;;;;;;5073271;28;20216;-74
2023/04/28 09:17:55;;;;;;;4.50;4.20;;;13.20;95.30;;;;;;5073569;28;20155;-74
2023/04/28 09:20:23;;;;;;;5.20;4.57;;;13.30;95.00;;;;;;5073481;28;20575;-74
2023/04/28 09:22:52;;;;;;;5.83;4.00;;;13.30;92.60;;;;;;5071639;28;20614;-76
2023/04/28 09:25:20;;;;;;;5.03;4.23;;;13.40;92.70;;;;;;5073912;28;20225;-74
2023/04/28 09:27:46;;;;;;;4.53;4.13;;;13.60;92.40;;;;;;5073636;28;20199;-74
2023/04/28 09:30:12;;;;;;;4.53;4.13;;;13.80;92.20;;;;;;5072909;28;20230;-77
2023/04/28 09:32:38;;;;;;;5.10;4.70;;;13.90;92.80;;;;;;5073097;28;20183;-74
2023/04/28 09:35:06;;;;;;;7.33;4.67;;;14.10;92.60;;;;;;5077311;28;20209;-74
2023/04/28 09:37:33;;;;;;;8.33;4.50;;;14.30;91.80;;;;;;5077009;28;20176;-74
2023/04/28 09:40:07;;;;;;;6.57;4.60;;;14.40;91.60;;;;;;5076018;28;20199;-73
2023/04/28 09:42:36;;;;;;;4.33;3.93;;;14.50;91.60;;;;;;5076836;28;20252;-74
2023/04/28 09:45:03;;;;;;;5.27;4.53;;;14.30;91.80;;;;;;5075240;28;20608;-74
2023/04/28 09:47:32;;;;;;;7.07;4.53;;;14.50;91.40;;;;;;5075706;28;20240;-74
2023/04/28 09:49:59;;;;;;;5.63;4.77;;;14.70;91.10;;;;;;5076739;28;20526;-74
2023/04/28 09:52:28;;;;;;;5.30;4.03;;;14.50;90.90;;;;;;5077445;28;20175;-73
2023/04/28 09:54:56;;;;;;;4.37;3.73;;;14.50;91.20;;;;;;5076654;28;20189;-75
2023/04/28 09:57:22;;;;;;;6.30;3.83;;;14.60;91.00;;;;;;5076443;28;20233;-75
2023/04/28 09:59:52;;;;;;;4.70;3.53;;;14.50;91.00;;;;;;5075663;28;20186;-73
2023/04/28 10:02:19;;;;;;;4.23;3.67;;;14.50;90.80;;;;;;5076982;28;20209;-75
2023/04/28 10:04:47;;;;;;;5.30;3.70;;;14.10;91.10;;;;;;5076713;28;20573;-74
2023/04/28 10:07:15;;;;;;;4.30;3.90;;;14.10;91.60;;;;;;5075508;28;20266;-75
2023/04/28 10:09:47;;;;;;;4.73;3.83;;;14.10;91.10;;;;;;5081978;28;20221;-75
2023/04/28 10:12:13;;;;;;;4.33;3.83;;;14.10;91.10;;;;;;5063115;28;20274;-76
2023/04/28 10:14:41;;;;;;;4.30;3.60;;;14.20;91.20;;;;;;5078711;28;20207;-75
2023/04/28 10:17:07;;;;;;;5.57;3.63;;;14.30;91.20;;;;;;5079217;28;20581;-74
2023/04/28 10:19:33;;;;;;;3.63;3.33;;;14.30;91.70;;;;;;5078073;28;20266;-74
2023/04/28 10:22:34;;;;;;;4.27;3.87;;;14.40;91.40;;;;;;5078319;28;20188;-74
2023/04/28 10:25:11;;;;;;;6.60;3.60;;;14.50;91.00;;;;;;5079107;28;20202;-75
2023/04/28 10:27:41;;;;;;;4.07;3.63;;;14.50;91.00;;;;;;5083393;28;20230;-76
2023/04/28 10:30:18;;;;;;;4.17;3.87;;;14.90;91.10;;;;;;5086843;28;20209;-74
2023/04/28 10:32:45;;;;;;;4.90;4.10;;;15.10;90.50;;;;;;5082895;28;20211;-73
2023/04/28 10:35:29;;;;;;;4.67;4.27;;;15.20;90.70;;;;;;5077731;28;20193;-74
2023/04/28 10:38:13;;;;;;;4.40;4.03;;;15.30;90.40;;;;;;5076826;28;20260;-75
2023/04/28 10:40:41;;;;;;;6.57;4.47;;;15.20;90.60;;;;;;5076083;28;20179;-74
2023/04/28 10:43:11;;;;;;;4.80;4.27;;;15.40;90.80;;;;;;5075845;28;20225;-74
2023/04/28 10:45:56;;;;;;;4.60;4.30;;;15.50;90.90;;;;;;5075774;28;20206;-74
2023/04/28 10:48:35;;;;;;;7.87;4.77;;;15.50;90.60;;;;;;5075885;28;20178;-76
2023/04/28 10:53:44;;;;;;;6.17;5.20;;;16.00;91.00;;;;;;5076931;28;20183;-74
2023/04/28 10:56:11;;;;;;;6.13;5.47;;;16.00;90.70;;;;;;5074844;28;20222;-74
2023/04/28 10:58:41;;;;;;;5.90;5.30;;;16.10;91.00;;;;;;5075424;28;20215;-75
2023/04/28 11:01:25;;;;;;;5.90;4.57;;;16.30;90.80;;;;;;5073132;28;20697;-75
2023/04/28 11:04:10;;;;;;;7.87;4.87;;;16.50;91.20;;;;;;5076023;28;20237;-76
2023/04/28 11:06:38;;;;;;;5.13;4.73;;;16.70;91.00;;;;;;5075625;28;20588;-74
2023/04/28 11:09:17;;;;;;;5.20;4.70;;;16.70;89.60;;;;;;5074980;28;20172;-74
2023/04/28 11:11:58;;;;;;;5.53;4.87;;;16.80;90.20;;;;;;5077031;28;20556;-75
2023/04/28 11:14:24;;;;;;;5.43;4.93;;;16.80;90.70;;;;;;5075338;28;20243;-75
2023/04/28 11:16:54;;;;;;;6.83;5.37;;;16.90;90.40;;;;;;5075819;28;20171;-75
2023/04/28 11:19:24;;;;;;;6.00;5.23;;;17.00;89.20;;;;;;5075107;28;20175;-75
2023/04/28 11:21:52;;;;;;;5.57;4.90;;;17.00;88.90;;;;;;5073725;28;20262;-75
2023/04/28 11:24:18;;;;;;;6.10;5.00;;;16.90;89.60;;;;;;5074163;28;20199;-76
2023/04/28 11:26:44;;;;;;;5.37;4.87;;;16.80;89.60;;;;;;5074573;28;20578;-75
2023/04/28 11:29:16;;;;;;;4.87;4.47;;;17.00;88.60;;;;;;5075185;28;20175;-74
2023/04/28 11:31:52;;;;;;;5.47;4.90;;;17.00;89.10;;;;;;5085393;28;20201;-75
2023/04/28 11:34:20;;;;;;;6.27;5.40;;;17.30;89.00;;;;;;5075429;28;20170;-75
2023/04/28 11:36:46;;;;;;;6.27;5.23;;;17.50;89.20;;;;;;5074624;28;20626;-75
2023/04/28 11:39:15;;;;;;;7.00;5.60;;;17.60;87.60;;;;;;5076975;28;20228;-74
2023/04/28 11:41:44;;;;;;;8.83;5.20;;;17.60;87.50;;;;;;5075796;28;20696;-74
2023/04/28 11:44:11;;;;;;;5.87;5.27;;;17.70;87.80;;;;;;5075990;28;20264;-74
2023/04/28 11:46:49;;;;;;;5.27;4.77;;;17.80;87.20;;;;;;5075715;28;20277;-75
2023/04/28 11:49:17;;;;;;;5.93;4.77;;;17.80;89.50;;;;;;5076136;28;20220;-73
2023/04/28 11:51:45;;;;;;;5.77;4.87;;;17.90;89.90;;;;;;5079289;28;20190;-76
2023/04/28 11:54:13;;;;;;;5.40;4.77;;;18.00;89.40;;;;;;5079947;28;20580;-74
2023/04/28 11:56:41;;;;;;;7.30;5.20;;;18.10;89.60;;;;;;5082424;28;20243;-76
2023/04/28 11:59:09;;;;;;;6.13;4.83;;;18.30;89.00;;;;;;5078177;28;20653;-74
2023/04/28 12:01:58;;;;;;;5.07;4.37;;;18.40;87.90;;;;;;5074882;28;20175;-74
2023/04/28 12:04:28;;;;;;;7.23;5.10;;;18.40;88.70;;;;;;5074818;28;20234;-74
2023/04/28 12:07:14;;;;;;;4.97;4.57;;;18.00;86.50;;;;;;5073625;28;20182;-74
2023/04/28 12:09:45;;;;;;;7.63;4.13;;;18.00;88.70;;;;;;5073986;28;20542;-73
2023/04/28 12:12:13;;;;;;;7.60;4.27;;;18.10;87.50;;;;;;5072916;28;20183;-75
2023/04/28 12:15:00;;;;;;;5.53;4.70;;;18.10;88.10;;;;;;5071777;28;20183;-74
2023/04/28 12:17:27;;;;;;;5.10;4.57;;;18.30;87.90;;;;;;5074150;28;20175;-74
2023/04/28 12:19:58;;;;;;;5.30;4.80;;;18.20;88.90;;;;;;5064042;28;20211;-75
2023/04/28 12:22:24;;;;;;;6.57;5.03;;;18.30;87.90;;;;;;5073227;28;20190;-74
2023/04/28 12:25:03;;;;;;;6.00;5.10;;;18.40;87.70;;;;;;5074860;28;20745;-74
2023/04/28 12:27:30;;;;;;;5.10;4.67;;;18.20;87.90;;;;;;5073447;28;20542;-75
2023/04/28 12:29:57;;;;;;;5.60;4.87;;;18.00;88.00;;;;;;5071230;28;20183;-76
2023/04/28 12:32:43;;;;;;;5.10;4.70;;;17.80;89.60;;;;;;5073308;28;20167;-74
2023/04/28 12:35:10;;;;;;;5.50;5.00;;;17.80;90.20;;;;;;5072000;28;20266;-75
2023/04/28 12:37:40;;;;;;;5.83;5.23;;;17.90;90.30;;;;;;5073923;28;20174;-74
2023/04/28 12:40:07;;;;;;;5.00;4.60;;;17.80;90.40;;;;;;5073390;28;20294;-76
2023/04/28 12:42:33;;;;;;;5.83;5.27;;;17.50;90.00;;;;;;5073726;28;20220;-74
2023/04/28 12:44:59;;;;;;;7.97;5.27;;;17.40;90.10;;;;;;5073242;28;20215;-75
2023/04/28 12:47:25;;;;;;;5.37;4.87;;;17.40;90.20;;;;;;5072757;28;20213;-74
2023/04/28 12:49:52;;;;;;;5.73;5.23;;;17.30;90.20;;;;;;5073570;28;20228;-75
2023/04/28 12:52:21;;;;;;;6.07;5.00;;;17.20;89.80;;;;;;5082799;28;20186;-76
2023/04/28 12:54:48;;;;;;;5.33;4.77;;;17.30;90.30;;;;;;5073376;28;20181;-75